createdAt,value
2023-05-07T00:00:40.960Z,10.61
2023-05-07T00:04:58.082Z,10.66
2023-05-07T00:09:01.196Z,10.70
2023-05-07T00:13:03.149Z,10.75
2023-05-07T00:17:05.289Z,10.82
2023-05-07T00:21:07.003Z,10.88
2023-05-07T00:25:09.157Z,10.91
2023-05-07T00:29:11.456Z,10.93
2023-05-07T00:33:13.415Z,10.91
2023-05-07T00:37:15.062Z,10.86
2023-05-07T00:41:16.999Z,10.78
2023-05-07T00:45:18.714Z,10.75
2023-05-07T00:49:20.823Z,10.72
2023-05-07T00:53:22.672Z,10.66
2023-05-07T00:57:25.865Z,10.63
2023-05-07T01:01:27.815Z,10.59
2023-05-07T01:05:30.995Z,10.52
2023-05-07T01:09:33.349Z,10.49
2023-05-07T01:13:39.679Z,10.51
2023-05-07T01:17:42.588Z,10.48
2023-05-07T01:21:48.846Z,10.47
2023-05-07T01:25:54.037Z,10.40
2023-05-07T01:29:58.517Z,10.40
2023-05-07T01:34:02.633Z,10.40
2023-05-07T01:38:06.373Z,10.37
2023-05-07T01:42:08.133Z,10.37
2023-05-07T01:46:11.243Z,10.34
2023-05-07T01:50:13.828Z,10.33
2023-05-07T01:54:15.842Z,10.29
2023-05-07T01:58:17.658Z,10.32
2023-05-07T02:02:19.312Z,10.30
2023-05-07T02:06:21.495Z,10.30
2023-05-07T02:10:23.503Z,10.31
2023-05-07T02:14:26.406Z,10.33
2023-05-07T02:18:28.112Z,10.33
2023-05-07T02:22:30.778Z,10.32
2023-05-07T02:26:32.486Z,10.31
2023-05-07T02:30:34.237Z,10.32
2023-05-07T02:34:36.330Z,10.30
2023-05-07T02:38:39.547Z,10.29
2023-05-07T02:42:41.611Z,10.30
2023-05-07T02:46:43.571Z,10.30
2023-05-07T02:50:45.188Z,10.27
2023-05-07T02:54:47.015Z,10.22
2023-05-07T02:58:48.820Z,10.21
2023-05-07T03:02:50.564Z,10.18
2023-05-07T03:06:52.254Z,10.12
2023-05-07T03:10:54.027Z,10.09
2023-05-07T03:14:55.769Z,10.06
2023-05-07T03:18:57.652Z,10.07
2023-05-07T03:22:59.584Z,10.06
2023-05-07T03:27:01.556Z,10.05
2023-05-07T03:31:03.630Z,10.06
2023-05-07T03:35:06.011Z,10.06
2023-05-07T03:39:08.114Z,10.10
2023-05-07T03:43:10.498Z,10.10
2023-05-07T03:47:13.714Z,10.13
2023-05-07T03:51:16.147Z,10.15
2023-05-07T03:55:18.419Z,10.19
2023-05-07T03:59:21.045Z,10.21
2023-05-07T04:03:22.961Z,10.23
2023-05-07T04:07:25.819Z,10.23
2023-05-07T04:11:27.807Z,10.23
2023-05-07T04:15:30.005Z,10.23
2023-05-07T04:19:34.264Z,10.21
2023-05-07T04:23:35.957Z,10.18
2023-05-07T04:27:38.181Z,10.16
2023-05-07T04:31:39.850Z,10.12
2023-05-07T04:35:41.896Z,10.09
2023-05-07T04:39:43.732Z,10.03
2023-05-07T04:43:46.059Z,9.96
2023-05-07T04:47:48.351Z,9.89
2023-05-07T04:51:50.555Z,9.83
2023-05-07T04:55:59.013Z,9.79
2023-05-07T05:00:00.687Z,9.78
2023-05-07T05:04:02.677Z,9.77
2023-05-07T05:08:04.404Z,9.79
2023-05-07T05:12:07.649Z,9.79
2023-05-07T05:16:09.516Z,9.78
2023-05-07T05:20:12.212Z,9.79
2023-05-07T05:24:14.138Z,9.80
2023-05-07T05:28:15.907Z,9.83
2023-05-07T05:32:17.636Z,9.93
2023-05-07T05:36:19.434Z,10.00
2023-05-07T05:40:21.197Z,10.06
2023-05-07T05:44:22.857Z,10.09
2023-05-07T05:48:24.527Z,10.10
2023-05-07T05:52:26.411Z,10.13
2023-05-07T05:56:28.474Z,10.19
2023-05-07T06:00:30.639Z,10.35
2023-05-07T06:04:32.451Z,10.45
2023-05-07T06:08:33.998Z,10.53
2023-05-07T06:12:35.955Z,10.63
2023-05-07T06:16:38.519Z,10.74
2023-05-07T06:20:40.294Z,10.85
2023-05-07T06:24:41.866Z,10.92
2023-05-07T06:28:43.598Z,11.00
2023-05-07T06:32:45.230Z,11.04
2023-05-07T06:36:46.825Z,10.93
2023-05-07T06:40:49.999Z,10.87
2023-05-07T06:44:51.545Z,10.80
2023-05-07T06:48:53.082Z,10.75
2023-05-07T06:52:54.577Z,10.68
2023-05-07T06:56:56.044Z,10.58
2023-05-07T07:00:57.449Z,10.54
2023-05-07T07:04:58.981Z,10.52
2023-05-07T07:09:00.954Z,10.56
2023-05-07T07:13:02.517Z,10.48
2023-05-07T07:17:05.489Z,10.41
2023-05-07T07:21:06.982Z,10.39
2023-05-07T07:25:10.858Z,10.41
2023-05-07T07:29:12.673Z,10.36
2023-05-07T07:33:14.971Z,10.41
2023-05-07T07:37:16.499Z,10.53
2023-05-07T07:41:18.318Z,10.68
2023-05-07T07:45:20.055Z,10.83
2023-05-07T07:49:21.939Z,10.89
2023-05-07T07:53:23.924Z,10.98
2023-05-07T07:57:25.817Z,11.04
2023-05-07T08:01:27.484Z,11.13
2023-05-07T08:05:29.841Z,11.37
2023-05-07T08:09:31.461Z,11.61
2023-05-07T08:13:33.351Z,11.92
2023-05-07T08:17:34.948Z,12.46
2023-05-07T08:21:40.058Z,12.76
2023-05-07T08:25:42.916Z,12.81
2023-05-07T08:29:47.810Z,12.89
2023-05-07T08:33:51.870Z,12.98
2023-05-07T08:37:53.860Z,12.98
2023-05-07T08:41:57.655Z,12.92
2023-05-07T08:46:02.615Z,12.85
2023-05-07T08:50:05.877Z,12.72
2023-05-07T08:54:07.894Z,12.66
2023-05-07T08:58:09.512Z,12.63
2023-05-07T09:02:11.971Z,12.64
2023-05-07T09:06:14.034Z,12.66
2023-05-07T09:10:15.864Z,12.65
2023-05-07T09:14:17.617Z,12.50
2023-05-07T09:18:19.672Z,12.35
2023-05-07T09:22:21.462Z,12.18
2023-05-07T09:26:24.111Z,12.07
2023-05-07T09:30:33.084Z,11.94
2023-05-07T09:34:36.548Z,11.91
2023-05-07T09:38:38.977Z,11.89
2023-05-07T09:42:40.531Z,11.96
2023-05-07T09:46:44.989Z,11.91
2023-05-07T09:50:51.971Z,11.74
2023-05-07T09:54:56.271Z,11.62
2023-05-07T09:59:01.793Z,11.63
2023-05-07T10:03:05.549Z,11.68
2023-05-07T10:07:08.198Z,11.72
2023-05-07T10:11:10.104Z,11.58
2023-05-07T10:15:13.721Z,11.48
2023-05-07T10:19:16.897Z,11.51
2023-05-07T10:23:24.185Z,11.54
2023-05-07T10:27:27.012Z,11.49
2023-05-07T10:31:37.525Z,11.41
2023-05-07T10:35:41.972Z,11.32
2023-05-07T10:39:43.635Z,11.29
2023-05-07T10:43:46.252Z,11.42
2023-05-07T10:48:28.017Z,11.65
2023-05-07T10:52:30.918Z,11.76
2023-05-07T10:56:32.536Z,11.72
2023-05-07T11:04:39.284Z,11.63
2023-05-07T11:08:53.457Z,11.60
2023-05-07T11:12:55.791Z,11.61
2023-05-07T11:17:04.031Z,11.66
2023-05-07T11:21:06.564Z,11.67
2023-05-07T11:25:08.413Z,11.70
2023-05-07T11:29:23.494Z,11.71
2023-05-07T11:33:26.208Z,11.77
2023-05-07T11:37:30.108Z,11.89
2023-05-07T11:41:37.324Z,11.96
2023-05-07T11:45:40.303Z,12.02
2023-05-07T11:49:42.571Z,12.11
2023-05-07T11:53:45.832Z,12.09
2023-05-07T11:57:48.260Z,12.04
2023-05-07T12:01:50.488Z,12.05
2023-05-07T12:05:52.108Z,12.08
2023-05-07T12:09:54.380Z,12.04
2023-05-07T12:13:59.916Z,12.13
2023-05-07T12:18:01.893Z,12.28
2023-05-07T12:22:04.148Z,12.46
2023-05-07T12:26:07.455Z,12.46
2023-05-07T12:30:11.130Z,12.34
2023-05-07T12:34:12.708Z,12.23
2023-05-07T12:38:16.682Z,12.25
2023-05-07T12:42:26.820Z,12.24
2023-05-07T12:46:29.126Z,12.28
2023-05-07T12:50:34.230Z,12.39
2023-05-07T12:54:38.367Z,12.59
2023-05-07T12:58:40.153Z,12.71
2023-05-07T13:02:46.820Z,12.71
2023-05-07T13:06:48.859Z,12.72
2023-05-07T13:10:50.611Z,12.76
2023-05-07T13:14:52.156Z,12.76
2023-05-07T13:18:54.021Z,12.84
2023-05-07T13:22:55.930Z,12.81
2023-05-07T13:26:57.953Z,12.68
2023-05-07T13:31:00.197Z,12.60
2023-05-07T13:35:02.058Z,12.54
2023-05-07T13:39:04.924Z,12.54
2023-05-07T13:43:06.968Z,12.61
2023-05-07T13:47:08.796Z,12.67
2023-05-07T13:51:10.693Z,12.75
2023-05-07T13:55:13.843Z,12.71
2023-05-07T13:59:16.187Z,12.71
2023-05-07T14:03:19.992Z,12.62
2023-05-07T14:07:21.686Z,12.55
2023-05-07T14:11:27.141Z,12.39
2023-05-07T14:15:28.811Z,12.34
2023-05-07T14:19:31.809Z,12.29
2023-05-07T14:23:42.080Z,12.26
2023-05-07T14:27:44.097Z,12.33
2023-05-07T14:31:46.536Z,12.36
2023-05-07T14:35:49.925Z,12.40
2023-05-07T14:39:51.821Z,12.39
2023-05-07T14:43:53.544Z,12.35
2023-05-07T14:47:55.999Z,12.28
2023-05-07T14:51:59.880Z,12.14
2023-05-07T14:56:01.626Z,12.06
2023-05-07T15:00:05.169Z,12.04
2023-05-07T15:04:07.027Z,12.01
2023-05-07T15:08:09.062Z,11.84
2023-05-07T15:12:15.539Z,11.68
2023-05-07T15:16:18.107Z,11.60
2023-05-07T15:20:22.652Z,11.57
2023-05-07T15:25:12.955Z,11.59
2023-05-07T15:29:14.850Z,11.59
2023-05-07T15:33:16.433Z,11.60
2023-05-07T15:37:17.841Z,11.56
2023-05-07T15:41:19.432Z,11.51
2023-05-07T15:45:27.998Z,11.49
2023-05-07T15:49:29.456Z,11.45
2023-05-07T15:53:31.186Z,11.48
2023-05-07T15:57:33.002Z,11.55
2023-05-07T16:01:34.493Z,11.59
2023-05-07T16:05:36.225Z,11.62
2023-05-07T16:09:37.548Z,11.63
2023-05-07T16:14:28.978Z,11.64
2023-05-07T16:18:30.394Z,11.66
2023-05-07T16:22:32.466Z,11.63
2023-05-07T16:26:34.248Z,11.65
2023-05-07T16:30:35.564Z,11.68
2023-05-07T16:34:36.985Z,11.64
2023-05-07T16:38:38.339Z,11.62
2023-05-07T16:42:39.806Z,11.62
2023-05-07T16:46:41.178Z,11.65
2023-05-07T16:50:43.816Z,11.64
2023-05-07T16:54:45.311Z,11.63
2023-05-07T16:58:46.784Z,11.62
2023-05-07T17:02:48.386Z,11.57
2023-05-07T17:06:50.112Z,11.57
2023-05-07T17:10:51.544Z,11.52
2023-05-07T17:14:58.698Z,11.47
2023-05-07T17:19:00.026Z,11.40
2023-05-07T17:23:01.519Z,11.38
2023-05-07T17:27:02.989Z,11.35
2023-05-07T17:31:05.066Z,11.25
2023-05-07T17:35:06.911Z,11.22
2023-05-07T17:39:10.823Z,11.17
2023-05-07T17:43:12.269Z,11.09
2023-05-07T17:47:13.725Z,11.02
2023-05-07T17:51:15.090Z,11.03
2023-05-07T17:55:16.464Z,11.03
2023-05-07T17:59:17.977Z,10.98
2023-05-07T18:03:20.098Z,10.99
2023-05-07T18:07:21.535Z,10.98
2023-05-07T18:11:23.870Z,10.97
2023-05-07T18:15:25.416Z,10.94
2023-05-07T18:19:27.358Z,10.95
2023-05-07T18:23:30.091Z,10.92
2023-05-07T18:27:31.408Z,10.92
2023-05-07T18:31:34.196Z,10.95
2023-05-07T18:35:37.344Z,10.89
2023-05-07T18:39:38.897Z,10.91
2023-05-07T18:43:40.332Z,10.90
2023-05-07T18:47:41.794Z,10.90
2023-05-07T18:51:44.316Z,10.84
2023-05-07T18:55:52.558Z,10.83
2023-05-07T18:59:57.049Z,10.81
2023-05-07T19:03:58.464Z,10.78
2023-05-07T19:07:59.971Z,10.71
2023-05-07T19:12:02.812Z,10.70
2023-05-07T19:16:05.039Z,10.72
2023-05-07T19:24:13.841Z,10.69
2023-05-07T19:28:15.781Z,10.65
2023-05-07T19:32:17.164Z,10.63
2023-05-07T19:36:19.757Z,10.63
2023-05-07T19:40:21.170Z,10.67
2023-05-07T19:44:24.386Z,10.65
2023-05-07T19:48:25.724Z,10.63
2023-05-07T19:52:27.069Z,10.61
2023-05-07T19:56:36.939Z,10.58
2023-05-07T20:00:38.316Z,10.54
2023-05-07T20:04:39.697Z,10.53
2023-05-07T20:08:42.670Z,10.52
2023-05-07T20:12:44.027Z,10.46
2023-05-07T20:16:45.399Z,10.39
2023-05-07T20:20:47.186Z,10.37
2023-05-07T20:24:48.718Z,10.35
2023-05-07T20:28:50.215Z,10.34
2023-05-07T20:32:51.711Z,10.30
2023-05-07T20:36:53.109Z,10.28
2023-05-07T20:40:54.854Z,10.24
2023-05-07T20:44:56.285Z,10.16
2023-05-07T20:48:57.895Z,10.06
2023-05-07T20:52:59.579Z,10.08
2023-05-07T20:57:01.128Z,10.10
2023-05-07T21:01:03.650Z,10.08
2023-05-07T21:05:05.505Z,10.08
2023-05-07T21:09:16.057Z,10.07
2023-05-07T21:13:18.017Z,10.06
2023-05-07T21:17:19.437Z,10.04
2023-05-07T21:21:20.772Z,9.98
2023-05-07T21:25:22.127Z,9.98
2023-05-07T21:29:23.891Z,9.95
2023-05-07T21:33:25.776Z,9.89
2023-05-07T21:37:27.226Z,9.88
2023-05-07T21:41:28.590Z,9.85
2023-05-07T21:45:30.053Z,9.78
2023-05-07T21:49:31.486Z,9.74
2023-05-07T21:53:33.579Z,9.66
2023-05-07T21:57:36.826Z,9.53
2023-05-07T22:01:38.203Z,9.38
2023-05-07T22:05:39.823Z,9.28
2023-05-07T22:09:46.243Z,9.13
2023-05-07T22:13:47.648Z,8.93
2023-05-07T22:17:49.119Z,8.81
2023-05-07T22:21:50.511Z,8.69
2023-05-07T22:25:52.221Z,8.61
2023-05-07T22:30:27.897Z,8.52
2023-05-07T22:34:29.752Z,8.41
2023-05-07T22:38:32.376Z,8.32
2023-05-07T22:42:35.852Z,8.25
2023-05-07T22:46:38.994Z,8.18
2023-05-07T22:50:41.691Z,8.12
2023-05-07T22:54:44.137Z,8.08
2023-05-07T22:58:46.711Z,8.05
2023-05-07T23:02:48.965Z,7.96
2023-05-07T23:06:50.741Z,7.74
2023-05-07T23:10:54.965Z,7.54
2023-05-07T23:14:57.698Z,7.41
2023-05-07T23:18:59.736Z,7.29
2023-05-07T23:23:01.675Z,7.20
2023-05-07T23:27:05.325Z,7.10
2023-05-07T23:31:08.368Z,7.01
2023-05-07T23:35:10.809Z,6.95
2023-05-07T23:39:12.560Z,6.87
2023-05-07T23:43:14.249Z,6.80
2023-05-07T23:47:16.081Z,6.79
2023-05-07T23:51:19.711Z,6.79
2023-05-07T23:55:22.576Z,6.75
2023-05-07T23:59:24.581Z,6.72
